sensor_id;sensor_type;location;lat;lon;timestamp;temperature;humidity
15199;DHT22;7700;48.654;9.070;2024-03-25T00:00:12;4.30;99.90
15199;DHT22;7700;48.654;9.070;2024-03-25T00:02:38;4.30;99.90
15199;DHT22;7700;48.654;9.070;2024-03-25T00:05:05;4.30;99.90
15199;DHT22;7700;48.654;9.070;2024-03-25T00:07:31;4.30;99.90
15199;DHT22;7700;48.654;9.070;2024-03-25T00:09:57;4.30;99.90
15199;DHT22;7700;48.654;9.070;2024-03-25T00:12:25;4.30;99.90
15199;DHT22;7700;48.654;9.070;2024-03-25T00:14:51;4.30;99.90
15199;DHT22;7700;48.654;9.070;2024-03-25T00:17:16;4.30;99.90
15199;DHT22;7700;48.654;9.070;2024-03-25T00:19:42;4.30;99.90
15199;DHT22;7700;48.654;9.070;2024-03-25T00:22:07;4.30;99.90
15199;DHT22;7700;48.654;9.070;2024-03-25T00:24:33;4.30;99.90
15199;DHT22;7700;48.654;9.070;2024-03-25T00:26:58;4.30;99.90
15199;DHT22;7700;48.654;9.070;2024-03-25T00:29:24;4.20;99.90
15199;DHT22;7700;48.654;9.070;2024-03-25T00:31:49;4.20;99.90
15199;DHT22;7700;48.654;9.070;2024-03-25T00:34:16;4.30;99.90
15199;DHT22;7700;48.654;9.070;2024-03-25T00:36:42;4.30;99.90
15199;DHT22;7700;48.654;9.070;2024-03-25T00:39:08;4.30;99.90
15199;DHT22;7700;48.654;9.070;2024-03-25T00:41:33;4.30;99.90
15199;DHT22;7700;48.654;9.070;2024-03-25T00:43:59;4.30;99.90
15199;DHT22;7700;48.654;9.070;2024-03-25T00:46:24;4.30;99.90
15199;DHT22;7700;48.654;9.070;2024-03-25T00:48:50;4.20;99.90
15199;DHT22;7700;48.654;9.070;2024-03-25T00:51:15;4.20;99.90
15199;DHT22;7700;48.654;9.070;2024-03-25T00:53:42;4.20;99.90
15199;DHT22;7700;48.654;9.070;2024-03-25T00:56:09;4.20;99.90
15199;DHT22;7700;48.654;9.070;2024-03-25T00:58:34;4.20;99.90
15199;DHT22;7700;48.654;9.070;2024-03-25T01:01:00;4.20;99.90
15199;DHT22;7700;48.654;9.070;2024-03-25T01:03:25;4.20;99.90
15199;DHT22;7700;48.654;9.070;2024-03-25T01:05:51;4.20;99.90
15199;DHT22;7700;48.654;9.070;2024-03-25T01:08:16;4.20;99.90
15199;DHT22;7700;48.654;9.070;2024-03-25T01:10:42;4.20;99.90
15199;DHT22;7700;48.654;9.070;2024-03-25T01:13:07;4.30;99.90
15199;DHT22;7700;48.654;9.070;2024-03-25T01:15:33;4.20;99.90
15199;DHT22;7700;48.654;9.070;2024-03-25T01:17:58;4.20;99.90
15199;DHT22;7700;48.654;9.070;2024-03-25T01:20:24;4.20;99.90
15199;DHT22;7700;48.654;9.070;2024-03-25T01:22:49;4.20;99.90
15199;DHT22;7700;48.654;9.070;2024-03-25T01:25:15;4.20;99.90
15199;DHT22;7700;48.654;9.070;2024-03-25T01:27:40;4.30;99.90
15199;DHT22;7700;48.654;9.070;2024-03-25T01:30:06;4.30;99.90
15199;DHT22;7700;48.654;9.070;2024-03-25T01:32:32;4.30;99.90
15199;DHT22;7700;48.654;9.070;2024-03-25T01:34:58;4.30;99.90
15199;DHT22;7700;48.654;9.070;2024-03-25T01:37:23;4.30;99.90
15199;DHT22;7700;48.654;9.070;2024-03-25T01:39:49;4.20;99.90
15199;DHT22;7700;48.654;9.070;2024-03-25T01:42:14;4.30;99.90
15199;DHT22;7700;48.654;9.070;2024-03-25T01:44:40;4.30;99.90
15199;DHT22;7700;48.654;9.070;2024-03-25T01:47:06;4.30;99.90
15199;DHT22;7700;48.654;9.070;2024-03-25T01:49:32;4.20;99.90
15199;DHT22;7700;48.654;9.070;2024-03-25T01:51:57;4.30;99.90
15199;DHT22;7700;48.654;9.070;2024-03-25T01:54:23;4.30;99.90
15199;DHT22;7700;48.654;9.070;2024-03-25T01:56:49;4.20;99.90
15199;DHT22;7700;48.654;9.070;2024-03-25T01:59:16;4.20;99.90
15199;DHT22;7700;48.654;9.070;2024-03-25T02:01:43;4.20;99.90
15199;DHT22;7700;48.654;9.070;2024-03-25T02:04:09;4.20;99.90
15199;DHT22;7700;48.654;9.070;2024-03-25T02:06:35;4.20;99.90
15199;DHT22;7700;48.654;9.070;2024-03-25T02:09:02;4.20;99.90
15199;DHT22;7700;48.654;9.070;2024-03-25T02:11:31;4.20;99.90
15199;DHT22;7700;48.654;9.070;2024-03-25T02:13:57;4.20;99.90
15199;DHT22;7700;48.654;9.070;2024-03-25T02:16:23;4.20;99.90
15199;DHT22;7700;48.654;9.070;2024-03-25T02:18:50;4.20;99.90
15199;DHT22;7700;48.654;9.070;2024-03-25T02:21:16;4.20;99.90
15199;DHT22;7700;48.654;9.070;2024-03-25T02:23:42;4.10;99.90
15199;DHT22;7700;48.654;9.070;2024-03-25T02:26:10;4.10;99.90
15199;DHT22;7700;48.654;9.070;2024-03-25T02:28:35;4.20;99.90
15199;DHT22;7700;48.654;9.070;2024-03-25T02:31:01;4.30;99.90
15199;DHT22;7700;48.654;9.070;2024-03-25T02:33:26;4.40;99.90
15199;DHT22;7700;48.654;9.070;2024-03-25T02:35:53;4.40;99.90
15199;DHT22;7700;48.654;9.070;2024-03-25T02:38:19;4.40;99.90
15199;DHT22;7700;48.654;9.070;2024-03-25T02:40:45;4.40;99.90
15199;DHT22;7700;48.654;9.070;2024-03-25T02:43:11;4.40;99.90
15199;DHT22;7700;48.654;9.070;2024-03-25T02:45:37;4.40;99.90
15199;DHT22;7700;48.654;9.070;2024-03-25T02:48:02;4.40;99.90
15199;DHT22;7700;48.654;9.070;2024-03-25T02:50:28;4.40;99.90
15199;DHT22;7700;48.654;9.070;2024-03-25T02:52:54;4.40;99.90
15199;DHT22;7700;48.654;9.070;2024-03-25T02:55:19;4.40;99.90
15199;DHT22;7700;48.654;9.070;2024-03-25T02:57:45;4.40;99.90
15199;DHT22;7700;48.654;9.070;2024-03-25T03:00:11;4.40;99.90
15199;DHT22;7700;48.654;9.070;2024-03-25T03:02:36;4.40;99.90
15199;DHT22;7700;48.654;9.070;2024-03-25T03:05:02;4.40;99.90
15199;DHT22;7700;48.654;9.070;2024-03-25T03:07:29;4.40;99.90
15199;DHT22;7700;48.654;9.070;2024-03-25T03:09:55;4.40;99.90
15199;DHT22;7700;48.654;9.070;2024-03-25T03:12:20;4.30;99.90
15199;DHT22;7700;48.654;9.070;2024-03-25T03:14:46;4.30;99.90
15199;DHT22;7700;48.654;9.070;2024-03-25T03:17:11;4.20;99.90
15199;DHT22;7700;48.654;9.070;2024-03-25T03:19:37;4.20;99.90
15199;DHT22;7700;48.654;9.070;2024-03-25T03:22:02;4.10;99.90
15199;DHT22;7700;48.654;9.070;2024-03-25T03:24:28;4.10;99.90
15199;DHT22;7700;48.654;9.070;2024-03-25T03:26:54;4.10;99.90
15199;DHT22;7700;48.654;9.070;2024-03-25T03:29:19;4.10;99.90
15199;DHT22;7700;48.654;9.070;2024-03-25T03:31:45;4.00;99.90
15199;DHT22;7700;48.654;9.070;2024-03-25T03:34:10;4.00;99.90
15199;DHT22;7700;48.654;9.070;2024-03-25T03:36:36;4.00;99.90
15199;DHT22;7700;48.654;9.070;2024-03-25T03:39:01;4.00;99.90
15199;DHT22;7700;48.654;9.070;2024-03-25T03:41:28;4.10;99.90
15199;DHT22;7700;48.654;9.070;2024-03-25T03:43:54;4.10;99.90
15199;DHT22;7700;48.654;9.070;2024-03-25T03:46:19;4.10;99.90
15199;DHT22;7700;48.654;9.070;2024-03-25T03:48:45;4.10;99.90
15199;DHT22;7700;48.654;9.070;2024-03-25T03:51:10;4.10;99.90
15199;DHT22;7700;48.654;9.070;2024-03-25T03:53:36;4.10;99.90
15199;DHT22;7700;48.654;9.070;2024-03-25T03:56:05;4.10;99.90
15199;DHT22;7700;48.654;9.070;2024-03-25T03:58:34;4.00;99.90
15199;DHT22;7700;48.654;9.070;2024-03-25T04:01:00;4.00;99.90
15199;DHT22;7700;48.654;9.070;2024-03-25T04:03:26;4.00;99.90
15199;DHT22;7700;48.654;9.070;2024-03-25T04:05:52;3.90;99.90
15199;DHT22;7700;48.654;9.070;2024-03-25T04:08:18;4.00;99.90
15199;DHT22;7700;48.654;9.070;2024-03-25T04:10:44;3.90;99.90
15199;DHT22;7700;48.654;9.070;2024-03-25T04:13:10;3.90;99.90
15199;DHT22;7700;48.654;9.070;2024-03-25T04:15:40;3.90;99.90
15199;DHT22;7700;48.654;9.070;2024-03-25T04:18:06;3.90;99.90
15199;DHT22;7700;48.654;9.070;2024-03-25T04:20:41;3.90;99.90
15199;DHT22;7700;48.654;9.070;2024-03-25T04:23:07;3.80;99.90
15199;DHT22;7700;48.654;9.070;2024-03-25T04:25:34;3.90;99.90
15199;DHT22;7700;48.654;9.070;2024-03-25T04:28:00;3.80;99.90
15199;DHT22;7700;48.654;9.070;2024-03-25T04:30:25;3.80;99.90
15199;DHT22;7700;48.654;9.070;2024-03-25T04:32:51;3.80;99.90
15199;DHT22;7700;48.654;9.070;2024-03-25T04:35:17;3.90;99.90
15199;DHT22;7700;48.654;9.070;2024-03-25T04:37:42;3.80;99.90
15199;DHT22;7700;48.654;9.070;2024-03-25T04:40:09;3.80;99.90
15199;DHT22;7700;48.654;9.070;2024-03-25T04:42:34;3.80;99.90
15199;DHT22;7700;48.654;9.070;2024-03-25T04:45:00;3.80;99.90
15199;DHT22;7700;48.654;9.070;2024-03-25T04:47:26;3.90;99.90
15199;DHT22;7700;48.654;9.070;2024-03-25T04:49:51;3.90;99.90
15199;DHT22;7700;48.654;9.070;2024-03-25T04:52:17;3.90;99.90
15199;DHT22;7700;48.654;9.070;2024-03-25T04:54:43;3.80;99.90
15199;DHT22;7700;48.654;9.070;2024-03-25T04:57:09;3.80;99.90
15199;DHT22;7700;48.654;9.070;2024-03-25T04:59:34;3.70;99.90
15199;DHT22;7700;48.654;9.070;2024-03-25T05:02:00;3.80;99.90
15199;DHT22;7700;48.654;9.070;2024-03-25T05:04:25;3.70;99.90
15199;DHT22;7700;48.654;9.070;2024-03-25T05:06:51;3.70;99.90
15199;DHT22;7700;48.654;9.070;2024-03-25T05:09:17;3.70;99.90
15199;DHT22;7700;48.654;9.070;2024-03-25T05:11:43;3.70;99.90
15199;DHT22;7700;48.654;9.070;2024-03-25T05:14:08;3.70;99.90
15199;DHT22;7700;48.654;9.070;2024-03-25T05:16:34;3.60;99.90
15199;DHT22;7700;48.654;9.070;2024-03-25T05:18:59;3.70;99.90
15199;DHT22;7700;48.654;9.070;2024-03-25T05:21:25;3.70;99.90
15199;DHT22;7700;48.654;9.070;2024-03-25T05:23:50;3.70;99.90
15199;DHT22;7700;48.654;9.070;2024-03-25T05:26:16;3.70;99.90
15199;DHT22;7700;48.654;9.070;2024-03-25T05:28:41;3.70;99.90
15199;DHT22;7700;48.654;9.070;2024-03-25T05:31:10;3.70;99.90
15199;DHT22;7700;48.654;9.070;2024-03-25T05:33:36;3.70;99.90
15199;DHT22;7700;48.654;9.070;2024-03-25T05:36:02;3.70;99.90
15199;DHT22;7700;48.654;9.070;2024-03-25T05:38:28;3.70;99.90
15199;DHT22;7700;48.654;9.070;2024-03-25T05:40:54;3.70;99.90
15199;DHT22;7700;48.654;9.070;2024-03-25T05:43:20;3.80;99.90
15199;DHT22;7700;48.654;9.070;2024-03-25T05:45:53;3.80;99.90
15199;DHT22;7700;48.654;9.070;2024-03-25T05:48:19;3.80;99.90
15199;DHT22;7700;48.654;9.070;2024-03-25T05:50:44;3.80;99.90
15199;DHT22;7700;48.654;9.070;2024-03-25T05:53:11;3.90;99.90
15199;DHT22;7700;48.654;9.070;2024-03-25T05:55:37;3.90;99.90
15199;DHT22;7700;48.654;9.070;2024-03-25T05:58:02;3.90;99.90
15199;DHT22;7700;48.654;9.070;2024-03-25T06:00:33;4.00;99.90
15199;DHT22;7700;48.654;9.070;2024-03-25T06:02:58;4.00;99.90
15199;DHT22;7700;48.654;9.070;2024-03-25T06:05:24;4.00;99.90
15199;DHT22;7700;48.654;9.070;2024-03-25T06:07:49;4.00;99.90
15199;DHT22;7700;48.654;9.070;2024-03-25T06:10:15;4.00;99.90
15199;DHT22;7700;48.654;9.070;2024-03-25T06:12:40;4.00;99.90
15199;DHT22;7700;48.654;9.070;2024-03-25T06:15:07;4.00;99.90
15199;DHT22;7700;48.654;9.070;2024-03-25T06:17:33;4.00;99.90
15199;DHT22;7700;48.654;9.070;2024-03-25T06:19:58;4.00;99.90
15199;DHT22;7700;48.654;9.070;2024-03-25T06:22:24;4.00;99.90
15199;DHT22;7700;48.654;9.070;2024-03-25T06:24:49;4.10;99.90
15199;DHT22;7700;48.654;9.070;2024-03-25T06:27:16;4.10;99.90
15199;DHT22;7700;48.654;9.070;2024-03-25T06:29:41;4.20;99.90
15199;DHT22;7700;48.654;9.070;2024-03-25T06:32:09;4.30;99.90
15199;DHT22;7700;48.654;9.070;2024-03-25T06:34:53;4.40;99.90
15199;DHT22;7700;48.654;9.070;2024-03-25T06:37:19;4.40;99.90
15199;DHT22;7700;48.654;9.070;2024-03-25T06:39:44;4.50;99.90
15199;DHT22;7700;48.654;9.070;2024-03-25T06:42:10;4.50;99.90
15199;DHT22;7700;48.654;9.070;2024-03-25T06:44:35;4.60;99.90
15199;DHT22;7700;48.654;9.070;2024-03-25T06:47:01;4.70;99.90
15199;DHT22;7700;48.654;9.070;2024-03-25T06:49:26;4.80;99.90
15199;DHT22;7700;48.654;9.070;2024-03-25T06:51:52;4.90;99.90
15199;DHT22;7700;48.654;9.070;2024-03-25T06:54:17;5.10;99.90
15199;DHT22;7700;48.654;9.070;2024-03-25T06:56:43;5.20;99.90
15199;DHT22;7700;48.654;9.070;2024-03-25T06:59:08;5.30;99.90
15199;DHT22;7700;48.654;9.070;2024-03-25T07:01:34;5.30;99.90
15199;DHT22;7700;48.654;9.070;2024-03-25T07:03:59;5.50;99.90
15199;DHT22;7700;48.654;9.070;2024-03-25T07:06:26;5.60;99.90
15199;DHT22;7700;48.654;9.070;2024-03-25T07:08:51;5.70;99.90
15199;DHT22;7700;48.654;9.070;2024-03-25T07:11:17;5.70;99.90
15199;DHT22;7700;48.654;9.070;2024-03-25T07:13:43;5.70;99.90
15199;DHT22;7700;48.654;9.070;2024-03-25T07:16:09;5.70;99.90
15199;DHT22;7700;48.654;9.070;2024-03-25T07:18:34;5.90;99.90
15199;DHT22;7700;48.654;9.070;2024-03-25T07:21:00;6.10;99.90
15199;DHT22;7700;48.654;9.070;2024-03-25T07:23:25;6.10;99.90
15199;DHT22;7700;48.654;9.070;2024-03-25T07:25:51;6.10;99.90
15199;DHT22;7700;48.654;9.070;2024-03-25T07:28:16;6.20;99.90
15199;DHT22;7700;48.654;9.070;2024-03-25T07:30:42;6.30;99.90
15199;DHT22;7700;48.654;9.070;2024-03-25T07:33:07;6.30;99.90
15199;DHT22;7700;48.654;9.070;2024-03-25T07:35:33;6.30;99.90
15199;DHT22;7700;48.654;9.070;2024-03-25T07:37:59;6.30;99.90
15199;DHT22;7700;48.654;9.070;2024-03-25T07:40:24;6.60;99.90
15199;DHT22;7700;48.654;9.070;2024-03-25T07:42:50;6.90;99.90
15199;DHT22;7700;48.654;9.070;2024-03-25T07:45:16;7.50;99.90
15199;DHT22;7700;48.654;9.070;2024-03-25T07:47:41;8.30;99.90
15199;DHT22;7700;48.654;9.070;2024-03-25T07:50:07;8.70;99.90
15199;DHT22;7700;48.654;9.070;2024-03-25T07:52:34;9.20;99.90
15199;DHT22;7700;48.654;9.070;2024-03-25T07:55:06;9.90;99.90
15199;DHT22;7700;48.654;9.070;2024-03-25T07:57:31;10.60;99.90
15199;DHT22;7700;48.654;9.070;2024-03-25T07:59:57;10.90;99.90
15199;DHT22;7700;48.654;9.070;2024-03-25T08:02:22;11.20;99.90
15199;DHT22;7700;48.654;9.070;2024-03-25T08:04:48;11.60;99.90
15199;DHT22;7700;48.654;9.070;2024-03-25T08:07:13;12.10;99.90
15199;DHT22;7700;48.654;9.070;2024-03-25T08:09:39;12.20;99.90
15199;DHT22;7700;48.654;9.070;2024-03-25T08:12:05;11.80;99.90
15199;DHT22;7700;48.654;9.070;2024-03-25T08:14:31;11.50;99.90
15199;DHT22;7700;48.654;9.070;2024-03-25T08:16:56;11.40;99.90
15199;DHT22;7700;48.654;9.070;2024-03-25T08:19:21;11.30;99.90
15199;DHT22;7700;48.654;9.070;2024-03-25T08:21:47;11.70;99.90
15199;DHT22;7700;48.654;9.070;2024-03-25T08:24:14;12.30;99.90
15199;DHT22;7700;48.654;9.070;2024-03-25T08:26:41;13.00;99.90
15199;DHT22;7700;48.654;9.070;2024-03-25T08:29:06;13.50;99.90
15199;DHT22;7700;48.654;9.070;2024-03-25T08:31:32;13.90;99.90
15199;DHT22;7700;48.654;9.070;2024-03-25T08:33:57;14.00;99.90
15199;DHT22;7700;48.654;9.070;2024-03-25T08:36:23;14.20;99.90
15199;DHT22;7700;48.654;9.070;2024-03-25T08:38:49;14.30;99.90
15199;DHT22;7700;48.654;9.070;2024-03-25T08:41:14;14.40;99.90
15199;DHT22;7700;48.654;9.070;2024-03-25T08:43:40;14.70;99.90
15199;DHT22;7700;48.654;9.070;2024-03-25T08:46:06;14.70;98.70
15199;DHT22;7700;48.654;9.070;2024-03-25T08:48:31;14.90;99.90
15199;DHT22;7700;48.654;9.070;2024-03-25T08:50:57;15.30;99.20
15199;DHT22;7700;48.654;9.070;2024-03-25T08:53:22;15.70;98.00
15199;DHT22;7700;48.654;9.070;2024-03-25T08:55:48;15.80;94.90
15199;DHT22;7700;48.654;9.070;2024-03-25T08:58:14;15.90;94.60
15199;DHT22;7700;48.654;9.070;2024-03-25T09:00:44;16.00;93.90
15199;DHT22;7700;48.654;9.070;2024-03-25T09:03:09;15.50;93.90
15199;DHT22;7700;48.654;9.070;2024-03-25T09:05:36;15.10;94.20
15199;DHT22;7700;48.654;9.070;2024-03-25T09:08:07;15.10;94.30
15199;DHT22;7700;48.654;9.070;2024-03-25T09:10:32;15.50;93.20
15199;DHT22;7700;48.654;9.070;2024-03-25T09:13:17;15.30;93.30
15199;DHT22;7700;48.654;9.070;2024-03-25T09:15:42;14.60;95.00
15199;DHT22;7700;48.654;9.070;2024-03-25T09:18:08;14.40;95.60
15199;DHT22;7700;48.654;9.070;2024-03-25T09:20:33;14.30;95.70
15199;DHT22;7700;48.654;9.070;2024-03-25T09:22:59;14.40;94.50
15199;DHT22;7700;48.654;9.070;2024-03-25T09:25:24;14.60;93.70
15199;DHT22;7700;48.654;9.070;2024-03-25T09:27:50;14.90;95.30
15199;DHT22;7700;48.654;9.070;2024-03-25T09:30:17;14.80;93.50
15199;DHT22;7700;48.654;9.070;2024-03-25T09:32:45;14.80;94.70
15199;DHT22;7700;48.654;9.070;2024-03-25T09:35:11;14.70;94.90
15199;DHT22;7700;48.654;9.070;2024-03-25T09:37:37;14.70;92.60
15199;DHT22;7700;48.654;9.070;2024-03-25T09:40:04;14.30;94.70
15199;DHT22;7700;48.654;9.070;2024-03-25T09:42:49;14.40;93.70
15199;DHT22;7700;48.654;9.070;2024-03-25T09:45:18;14.70;96.10
15199;DHT22;7700;48.654;9.070;2024-03-25T09:47:47;15.70;95.30
15199;DHT22;7700;48.654;9.070;2024-03-25T09:50:13;16.00;91.40
15199;DHT22;7700;48.654;9.070;2024-03-25T09:52:48;15.90;90.00
15199;DHT22;7700;48.654;9.070;2024-03-25T09:55:14;16.00;88.60
15199;DHT22;7700;48.654;9.070;2024-03-25T09:57:40;15.60;88.50
15199;DHT22;7700;48.654;9.070;2024-03-25T10:03:31;15.50;86.80
15199;DHT22;7700;48.654;9.070;2024-03-25T10:05:57;14.70;91.00
15199;DHT22;7700;48.654;9.070;2024-03-25T10:08:23;14.30;92.60
15199;DHT22;7700;48.654;9.070;2024-03-25T10:10:51;14.40;91.90
15199;DHT22;7700;48.654;9.070;2024-03-25T10:13:17;14.60;91.40
15199;DHT22;7700;48.654;9.070;2024-03-25T10:15:43;15.20;89.60
15199;DHT22;7700;48.654;9.070;2024-03-25T10:18:11;15.90;90.50
15199;DHT22;7700;48.654;9.070;2024-03-25T10:20:37;16.80;87.30
15199;DHT22;7700;48.654;9.070;2024-03-25T10:23:03;17.30;86.60
15199;DHT22;7700;48.654;9.070;2024-03-25T10:25:30;17.90;81.00
15199;DHT22;7700;48.654;9.070;2024-03-25T10:28:00;18.50;77.10
15199;DHT22;7700;48.654;9.070;2024-03-25T10:30:29;18.70;72.60
15199;DHT22;7700;48.654;9.070;2024-03-25T10:33:04;18.50;77.30
15199;DHT22;7700;48.654;9.070;2024-03-25T10:35:32;18.50;77.90
15199;DHT22;7700;48.654;9.070;2024-03-25T10:38:03;18.70;74.90
15199;DHT22;7700;48.654;9.070;2024-03-25T10:40:34;18.80;73.50
15199;DHT22;7700;48.654;9.070;2024-03-25T10:43:01;19.30;71.00
15199;DHT22;7700;48.654;9.070;2024-03-25T10:45:29;19.20;70.40
15199;DHT22;7700;48.654;9.070;2024-03-25T10:48:03;19.30;71.40
15199;DHT22;7700;48.654;9.070;2024-03-25T10:50:30;19.70;71.50
15199;DHT22;7700;48.654;9.070;2024-03-25T10:52:57;19.70;69.80
15199;DHT22;7700;48.654;9.070;2024-03-25T10:55:23;19.80;67.00
15199;DHT22;7700;48.654;9.070;2024-03-25T10:57:50;20.00;66.70
15199;DHT22;7700;48.654;9.070;2024-03-25T11:00:17;19.10;64.70
15199;DHT22;7700;48.654;9.070;2024-03-25T11:02:45;18.70;70.20
15199;DHT22;7700;48.654;9.070;2024-03-25T11:05:12;19.30;69.30
15199;DHT22;7700;48.654;9.070;2024-03-25T11:07:37;19.30;69.10
15199;DHT22;7700;48.654;9.070;2024-03-25T11:10:08;19.00;65.80
15199;DHT22;7700;48.654;9.070;2024-03-25T11:12:39;18.70;68.20
15199;DHT22;7700;48.654;9.070;2024-03-25T11:15:06;18.30;69.30
15199;DHT22;7700;48.654;9.070;2024-03-25T11:17:35;18.30;68.50
15199;DHT22;7700;48.654;9.070;2024-03-25T11:20:11;18.50;67.50
15199;DHT22;7700;48.654;9.070;2024-03-25T11:22:50;18.50;67.90
15199;DHT22;7700;48.654;9.070;2024-03-25T11:25:16;18.60;66.40
15199;DHT22;7700;48.654;9.070;2024-03-25T11:27:45;17.90;67.20
15199;DHT22;7700;48.654;9.070;2024-03-25T11:30:15;17.10;66.20
15199;DHT22;7700;48.654;9.070;2024-03-25T11:32:53;16.60;69.40
15199;DHT22;7700;48.654;9.070;2024-03-25T11:35:19;16.10;74.90
15199;DHT22;7700;48.654;9.070;2024-03-25T11:37:45;16.30;71.20
15199;DHT22;7700;48.654;9.070;2024-03-25T11:40:12;17.00;65.60
15199;DHT22;7700;48.654;9.070;2024-03-25T11:42:40;17.40;70.10
15199;DHT22;7700;48.654;9.070;2024-03-25T11:45:07;17.60;68.80
15199;DHT22;7700;48.654;9.070;2024-03-25T11:47:33;17.80;66.20
15199;DHT22;7700;48.654;9.070;2024-03-25T11:49:59;17.60;63.70
15199;DHT22;7700;48.654;9.070;2024-03-25T11:52:30;17.20;68.00
15199;DHT22;7700;48.654;9.070;2024-03-25T11:54:55;16.70;71.20
15199;DHT22;7700;48.654;9.070;2024-03-25T11:57:22;15.70;73.50
15199;DHT22;7700;48.654;9.070;2024-03-25T11:59:48;15.00;77.00
15199;DHT22;7700;48.654;9.070;2024-03-25T12:02:15;15.30;79.30
15199;DHT22;7700;48.654;9.070;2024-03-25T12:04:45;15.50;76.20
15199;DHT22;7700;48.654;9.070;2024-03-25T12:07:14;15.20;76.70
15199;DHT22;7700;48.654;9.070;2024-03-25T12:09:40;15.00;78.00
15199;DHT22;7700;48.654;9.070;2024-03-25T12:12:28;14.60;77.40
15199;DHT22;7700;48.654;9.070;2024-03-25T12:14:54;14.20;79.30
15199;DHT22;7700;48.654;9.070;2024-03-25T12:17:20;13.90;81.40
15199;DHT22;7700;48.654;9.070;2024-03-25T12:20:19;13.70;79.60
15199;DHT22;7700;48.654;9.070;2024-03-25T12:22:45;13.50;79.40
15199;DHT22;7700;48.654;9.070;2024-03-25T12:25:11;14.20;82.10
15199;DHT22;7700;48.654;9.070;2024-03-25T12:27:38;15.10;76.80
15199;DHT22;7700;48.654;9.070;2024-03-25T12:30:08;15.60;77.80
15199;DHT22;7700;48.654;9.070;2024-03-25T12:32:44;15.80;72.70
15199;DHT22;7700;48.654;9.070;2024-03-25T12:35:17;16.00;73.90
15199;DHT22;7700;48.654;9.070;2024-03-25T12:37:45;16.00;72.20
15199;DHT22;7700;48.654;9.070;2024-03-25T12:40:27;16.10;72.40
15199;DHT22;7700;48.654;9.070;2024-03-25T12:42:54;16.30;70.00
15199;DHT22;7700;48.654;9.070;2024-03-25T12:45:23;16.90;68.70
15199;DHT22;7700;48.654;9.070;2024-03-25T12:47:49;17.00;67.90
15199;DHT22;7700;48.654;9.070;2024-03-25T12:50:15;17.20;68.50
15199;DHT22;7700;48.654;9.070;2024-03-25T12:52:40;17.30;67.40
15199;DHT22;7700;48.654;9.070;2024-03-25T12:55:06;17.10;64.80
15199;DHT22;7700;48.654;9.070;2024-03-25T12:57:32;16.60;67.30
15199;DHT22;7700;48.654;9.070;2024-03-25T12:59:57;16.40;67.10
15199;DHT22;7700;48.654;9.070;2024-03-25T13:02:23;16.30;62.70
15199;DHT22;7700;48.654;9.070;2024-03-25T13:04:49;16.00;64.50
15199;DHT22;7700;48.654;9.070;2024-03-25T13:07:14;16.20;66.00
15199;DHT22;7700;48.654;9.070;2024-03-25T13:09:40;16.40;63.90
15199;DHT22;7700;48.654;9.070;2024-03-25T13:12:06;16.50;64.30
15199;DHT22;7700;48.654;9.070;2024-03-25T13:14:31;16.60;65.00
15199;DHT22;7700;48.654;9.070;2024-03-25T13:16:57;16.70;64.60
15199;DHT22;7700;48.654;9.070;2024-03-25T13:19:22;16.40;67.70
15199;DHT22;7700;48.654;9.070;2024-03-25T13:21:48;16.60;66.60
15199;DHT22;7700;48.654;9.070;2024-03-25T13:24:14;16.60;67.60
15199;DHT22;7700;48.654;9.070;2024-03-25T13:26:40;16.60;65.20
15199;DHT22;7700;48.654;9.070;2024-03-25T13:29:05;16.70;67.00
15199;DHT22;7700;48.654;9.070;2024-03-25T13:31:33;16.70;67.30
15199;DHT22;7700;48.654;9.070;2024-03-25T13:33:58;16.90;66.40
15199;DHT22;7700;48.654;9.070;2024-03-25T13:36:24;17.00;66.80
15199;DHT22;7700;48.654;9.070;2024-03-25T13:38:49;16.50;61.60
15199;DHT22;7700;48.654;9.070;2024-03-25T13:41:15;16.10;66.00
15199;DHT22;7700;48.654;9.070;2024-03-25T13:43:43;15.60;65.10
15199;DHT22;7700;48.654;9.070;2024-03-25T13:46:09;15.00;68.70
15199;DHT22;7700;48.654;9.070;2024-03-25T13:48:34;15.30;69.80
15199;DHT22;7700;48.654;9.070;2024-03-25T13:51:00;15.60;70.90
15199;DHT22;7700;48.654;9.070;2024-03-25T13:53:26;15.70;69.30
15199;DHT22;7700;48.654;9.070;2024-03-25T13:55:52;15.70;68.70
15199;DHT22;7700;48.654;9.070;2024-03-25T13:58:17;15.80;68.20
15199;DHT22;7700;48.654;9.070;2024-03-25T14:00:43;15.50;68.50
15199;DHT22;7700;48.654;9.070;2024-03-25T14:03:08;15.00;70.50
15199;DHT22;7700;48.654;9.070;2024-03-25T14:05:34;14.40;68.80
15199;DHT22;7700;48.654;9.070;2024-03-25T14:07:59;14.20;71.20
15199;DHT22;7700;48.654;9.070;2024-03-25T14:10:25;14.10;69.20
15199;DHT22;7700;48.654;9.070;2024-03-25T14:12:50;14.30;72.00
15199;DHT22;7700;48.654;9.070;2024-03-25T14:15:16;14.70;73.20
15199;DHT22;7700;48.654;9.070;2024-03-25T14:17:41;15.10;73.40
15199;DHT22;7700;48.654;9.070;2024-03-25T14:20:07;15.40;71.80
15199;DHT22;7700;48.654;9.070;2024-03-25T14:22:34;15.70;70.90
15199;DHT22;7700;48.654;9.070;2024-03-25T14:24:59;15.60;68.00
15199;DHT22;7700;48.654;9.070;2024-03-25T14:27:25;15.40;70.10
15199;DHT22;7700;48.654;9.070;2024-03-25T14:29:51;15.40;69.40
15199;DHT22;7700;48.654;9.070;2024-03-25T14:32:20;15.50;70.30
15199;DHT22;7700;48.654;9.070;2024-03-25T14:34:47;15.30;70.30
15199;DHT22;7700;48.654;9.070;2024-03-25T14:37:12;15.30;72.40
15199;DHT22;7700;48.654;9.070;2024-03-25T14:39:38;15.30;72.70
15199;DHT22;7700;48.654;9.070;2024-03-25T14:42:04;15.40;70.20
15199;DHT22;7700;48.654;9.070;2024-03-25T14:44:30;15.40;69.60
15199;DHT22;7700;48.654;9.070;2024-03-25T14:46:55;15.10;69.20
15199;DHT22;7700;48.654;9.070;2024-03-25T14:49:23;14.60;69.90
15199;DHT22;7700;48.654;9.070;2024-03-25T14:51:49;14.30;73.00
15199;DHT22;7700;48.654;9.070;2024-03-25T14:54:14;14.40;74.60
15199;DHT22;7700;48.654;9.070;2024-03-25T14:56:40;14.60;74.80
15199;DHT22;7700;48.654;9.070;2024-03-25T14:59:05;14.50;73.60
15199;DHT22;7700;48.654;9.070;2024-03-25T15:01:31;14.60;73.20
15199;DHT22;7700;48.654;9.070;2024-03-25T15:04:01;14.60;71.80
15199;DHT22;7700;48.654;9.070;2024-03-25T15:06:26;14.60;72.40
15199;DHT22;7700;48.654;9.070;2024-03-25T15:08:52;14.50;73.00
15199;DHT22;7700;48.654;9.070;2024-03-25T15:11:17;14.60;74.20
15199;DHT22;7700;48.654;9.070;2024-03-25T15:13:43;14.70;73.50
15199;DHT22;7700;48.654;9.070;2024-03-25T15:16:08;14.70;70.10
15199;DHT22;7700;48.654;9.070;2024-03-25T15:18:34;14.70;71.70
15199;DHT22;7700;48.654;9.070;2024-03-25T15:21:03;14.80;73.20
15199;DHT22;7700;48.654;9.070;2024-03-25T15:23:30;14.90;72.60
15199;DHT22;7700;48.654;9.070;2024-03-25T15:25:56;14.80;72.70
15199;DHT22;7700;48.654;9.070;2024-03-25T15:28:22;14.60;71.30
15199;DHT22;7700;48.654;9.070;2024-03-25T15:30:47;14.40;73.50
15199;DHT22;7700;48.654;9.070;2024-03-25T15:33:14;14.40;72.20
15199;DHT22;7700;48.654;9.070;2024-03-25T15:35:39;14.30;71.20
15199;DHT22;7700;48.654;9.070;2024-03-25T15:38:05;14.20;74.50
15199;DHT22;7700;48.654;9.070;2024-03-25T15:40:31;14.20;72.70
15199;DHT22;7700;48.654;9.070;2024-03-25T15:42:57;14.10;72.10
15199;DHT22;7700;48.654;9.070;2024-03-25T15:45:22;13.90;74.40
15199;DHT22;7700;48.654;9.070;2024-03-25T15:47:51;13.80;72.80
15199;DHT22;7700;48.654;9.070;2024-03-25T15:50:17;13.70;73.50
15199;DHT22;7700;48.654;9.070;2024-03-25T15:52:43;13.60;71.70